sensor_id;sensor_type;location;lat;lon;timestamp;P1;P2;P0
49454;PMS5003;69710;64.656;21.218;2023-08-24T00:00:42;16;15;
49454;PMS5003;69710;64.656;21.218;2023-08-24T00:03:10;15;14;
49454;PMS5003;69710;64.656;21.218;2023-08-24T00:05:38;15;14;
49454;PMS5003;69710;64.656;21.218;2023-08-24T00:08:05;13;13;
49454;PMS5003;69710;64.656;21.218;2023-08-24T00:10:33;14;13;
49454;PMS5003;69710;64.656;21.218;2023-08-24T00:13:02;16;16;
49454;PMS5003;69710;64.656;21.218;2023-08-24T00:15:29;16;15;
49454;PMS5003;69710;64.656;21.218;2023-08-24T00:17:57;17;15;
49454;PMS5003;69710;64.656;21.218;2023-08-24T00:20:25;18;17;
49454;PMS5003;69710;64.656;21.218;2023-08-24T00:22:53;16;16;
49454;PMS5003;69710;64.656;21.218;2023-08-24T00:25:21;17;16;
49454;PMS5003;69710;64.656;21.218;2023-08-24T00:27:48;13;13;
49454;PMS5003;69710;64.656;21.218;2023-08-24T00:30:16;14;14;
49454;PMS5003;69710;64.656;21.218;2023-08-24T00:32:44;15;14;
49454;PMS5003;69710;64.656;21.218;2023-08-24T00:35:12;14;13;
49454;PMS5003;69710;64.656;21.218;2023-08-24T00:37:40;12;12;
49454;PMS5003;69710;64.656;21.218;2023-08-24T00:40:08;15;15;
49454;PMS5003;69710;64.656;21.218;2023-08-24T00:42:37;14;14;
49454;PMS5003;69710;64.656;21.218;2023-08-24T00:45:06;16;15;
49454;PMS5003;69710;64.656;21.218;2023-08-24T00:47:34;13;13;
49454;PMS5003;69710;64.656;21.218;2023-08-24T00:50:03;16;15;
49454;PMS5003;69710;64.656;21.218;2023-08-24T00:52:31;15;14;
49454;PMS5003;69710;64.656;21.218;2023-08-24T00:55:00;15;15;
49454;PMS5003;69710;64.656;21.218;2023-08-24T00:57:28;16;16;
49454;PMS5003;69710;64.656;21.218;2023-08-24T00:59:56;15;15;
49454;PMS5003;69710;64.656;21.218;2023-08-24T01:02:25;14;13;
49454;PMS5003;69710;64.656;21.218;2023-08-24T01:04:53;16;15;
49454;PMS5003;69710;64.656;21.218;2023-08-24T01:07:21;14;13;
49454;PMS5003;69710;64.656;21.218;2023-08-24T01:09:48;15;14;
49454;PMS5003;69710;64.656;21.218;2023-08-24T01:12:19;15;15;
49454;PMS5003;69710;64.656;21.218;2023-08-24T01:14:54;16;15;
49454;PMS5003;69710;64.656;21.218;2023-08-24T01:17:31;14;13;
49454;PMS5003;69710;64.656;21.218;2023-08-24T01:20:02;14;14;
49454;PMS5003;69710;64.656;21.218;2023-08-24T01:22:33;14;14;
49454;PMS5003;69710;64.656;21.218;2023-08-24T01:25:06;15;15;
49454;PMS5003;69710;64.656;21.218;2023-08-24T01:27:42;15;15;
49454;PMS5003;69710;64.656;21.218;2023-08-24T01:30:10;14;14;
49454;PMS5003;69710;64.656;21.218;2023-08-24T01:32:38;15;15;
49454;PMS5003;69710;64.656;21.218;2023-08-24T01:35:07;15;15;
49454;PMS5003;69710;64.656;21.218;2023-08-24T01:37:35;16;15;
49454;PMS5003;69710;64.656;21.218;2023-08-24T01:40:04;13;13;
49454;PMS5003;69710;64.656;21.218;2023-08-24T01:42:33;15;15;
49454;PMS5003;69710;64.656;21.218;2023-08-24T01:45:04;15;15;
49454;PMS5003;69710;64.656;21.218;2023-08-24T01:47:34;14;13;
49454;PMS5003;69710;64.656;21.218;2023-08-24T01:50:03;15;15;
49454;PMS5003;69710;64.656;21.218;2023-08-24T01:52:32;15;13;
49454;PMS5003;69710;64.656;21.218;2023-08-24T01:55:02;13;12;
49454;PMS5003;69710;64.656;21.218;2023-08-24T01:57:30;13;13;
49454;PMS5003;69710;64.656;21.218;2023-08-24T01:59:57;12;12;
49454;PMS5003;69710;64.656;21.218;2023-08-24T02:02:25;14;13;
49454;PMS5003;69710;64.656;21.218;2023-08-24T02:04:53;12;12;
49454;PMS5003;69710;64.656;21.218;2023-08-24T02:07:21;15;14;
49454;PMS5003;69710;64.656;21.218;2023-08-24T02:09:48;15;14;
49454;PMS5003;69710;64.656;21.218;2023-08-24T02:12:16;12;11;
49454;PMS5003;69710;64.656;21.218;2023-08-24T02:14:43;12;12;
49454;PMS5003;69710;64.656;21.218;2023-08-24T02:17:10;13;13;
49454;PMS5003;69710;64.656;21.218;2023-08-24T02:19:38;15;14;
49454;PMS5003;69710;64.656;21.218;2023-08-24T02:22:06;12;12;
49454;PMS5003;69710;64.656;21.218;2023-08-24T02:24:35;14;13;
49454;PMS5003;69710;64.656;21.218;2023-08-24T02:27:03;13;13;
49454;PMS5003;69710;64.656;21.218;2023-08-24T02:29:31;14;13;
49454;PMS5003;69710;64.656;21.218;2023-08-24T02:31:59;16;15;
49454;PMS5003;69710;64.656;21.218;2023-08-24T02:34:26;14;13;
49454;PMS5003;69710;64.656;21.218;2023-08-24T02:36:59;14;13;
49454;PMS5003;69710;64.656;21.218;2023-08-24T02:39:28;13;12;
49454;PMS5003;69710;64.656;21.218;2023-08-24T02:41:57;13;13;
49454;PMS5003;69710;64.656;21.218;2023-08-24T02:44:26;12;12;
49454;PMS5003;69710;64.656;21.218;2023-08-24T02:46:54;12;12;
49454;PMS5003;69710;64.656;21.218;2023-08-24T02:49:24;13;13;
49454;PMS5003;69710;64.656;21.218;2023-08-24T02:51:54;14;14;
49454;PMS5003;69710;64.656;21.218;2023-08-24T02:54:21;17;16;
49454;PMS5003;69710;64.656;21.218;2023-08-24T02:56:49;12;12;
49454;PMS5003;69710;64.656;21.218;2023-08-24T02:59:17;14;13;
49454;PMS5003;69710;64.656;21.218;2023-08-24T03:01:50;16;16;
49454;PMS5003;69710;64.656;21.218;2023-08-24T03:04:18;14;14;
49454;PMS5003;69710;64.656;21.218;2023-08-24T03:06:45;15;13;
49454;PMS5003;69710;64.656;21.218;2023-08-24T03:09:13;12;12;
49454;PMS5003;69710;64.656;21.218;2023-08-24T03:11:40;16;15;
49454;PMS5003;69710;64.656;21.218;2023-08-24T03:14:08;15;14;
49454;PMS5003;69710;64.656;21.218;2023-08-24T03:16:37;16;15;
49454;PMS5003;69710;64.656;21.218;2023-08-24T03:19:06;18;17;
49454;PMS5003;69710;64.656;21.218;2023-08-24T03:21:33;15;14;
49454;PMS5003;69710;64.656;21.218;2023-08-24T03:24:00;14;13;
49454;PMS5003;69710;64.656;21.218;2023-08-24T03:26:28;14;14;
49454;PMS5003;69710;64.656;21.218;2023-08-24T03:29:00;14;14;
49454;PMS5003;69710;64.656;21.218;2023-08-24T03:31:27;16;16;
49454;PMS5003;69710;64.656;21.218;2023-08-24T03:33:55;16;15;
49454;PMS5003;69710;64.656;21.218;2023-08-24T03:36:22;19;19;
49454;PMS5003;69710;64.656;21.218;2023-08-24T03:38:50;16;16;
49454;PMS5003;69710;64.656;21.218;2023-08-24T03:41:18;18;18;
49454;PMS5003;69710;64.656;21.218;2023-08-24T03:43:45;15;14;
49454;PMS5003;69710;64.656;21.218;2023-08-24T03:46:13;17;17;
49454;PMS5003;69710;64.656;21.218;2023-08-24T03:48:40;17;17;
49454;PMS5003;69710;64.656;21.218;2023-08-24T03:51:08;16;15;
49454;PMS5003;69710;64.656;21.218;2023-08-24T03:53:35;15;15;
49454;PMS5003;69710;64.656;21.218;2023-08-24T03:56:03;17;17;
49454;PMS5003;69710;64.656;21.218;2023-08-24T03:58:31;20;19;
49454;PMS5003;69710;64.656;21.218;2023-08-24T04:00:58;19;17;
49454;PMS5003;69710;64.656;21.218;2023-08-24T04:03:27;17;17;
49454;PMS5003;69710;64.656;21.218;2023-08-24T04:05:56;16;16;
49454;PMS5003;69710;64.656;21.218;2023-08-24T04:08:25;20;19;
49454;PMS5003;69710;64.656;21.218;2023-08-24T04:10:52;17;17;
49454;PMS5003;69710;64.656;21.218;2023-08-24T04:13:20;17;17;
49454;PMS5003;69710;64.656;21.218;2023-08-24T04:15:48;20;18;
49454;PMS5003;69710;64.656;21.218;2023-08-24T04:18:16;20;19;
49454;PMS5003;69710;64.656;21.218;2023-08-24T04:20:43;19;17;
49454;PMS5003;69710;64.656;21.218;2023-08-24T04:23:12;17;17;
49454;PMS5003;69710;64.656;21.218;2023-08-24T04:25:40;18;17;
49454;PMS5003;69710;64.656;21.218;2023-08-24T04:28:08;18;18;
49454;PMS5003;69710;64.656;21.218;2023-08-24T04:30:37;19;19;
49454;PMS5003;69710;64.656;21.218;2023-08-24T04:33:05;22;21;
49454;PMS5003;69710;64.656;21.218;2023-08-24T04:35:34;27;24;
49454;PMS5003;69710;64.656;21.218;2023-08-24T04:38:01;20;19;
49454;PMS5003;69710;64.656;21.218;2023-08-24T04:40:30;21;21;
49454;PMS5003;69710;64.656;21.218;2023-08-24T04:43:10;29;27;
49454;PMS5003;69710;64.656;21.218;2023-08-24T04:45:37;28;27;
49454;PMS5003;69710;64.656;21.218;2023-08-24T04:48:05;27;26;
49454;PMS5003;69710;64.656;21.218;2023-08-24T04:50:33;26;26;
49454;PMS5003;69710;64.656;21.218;2023-08-24T04:53:00;28;25;
49454;PMS5003;69710;64.656;21.218;2023-08-24T04:55:28;25;25;
49454;PMS5003;69710;64.656;21.218;2023-08-24T04:57:56;27;26;
49454;PMS5003;69710;64.656;21.218;2023-08-24T05:00:23;27;25;
49454;PMS5003;69710;64.656;21.218;2023-08-24T05:02:51;23;22;
49454;PMS5003;69710;64.656;21.218;2023-08-24T05:05:18;24;24;
49454;PMS5003;69710;64.656;21.218;2023-08-24T05:07:46;26;26;
49454;PMS5003;69710;64.656;21.218;2023-08-24T05:10:14;24;24;
49454;PMS5003;69710;64.656;21.218;2023-08-24T05:12:42;27;26;
49454;PMS5003;69710;64.656;21.218;2023-08-24T05:15:10;27;26;
49454;PMS5003;69710;64.656;21.218;2023-08-24T05:17:38;29;29;
49454;PMS5003;69710;64.656;21.218;2023-08-24T05:20:06;29;28;
49454;PMS5003;69710;64.656;21.218;2023-08-24T05:22:35;28;27;
49454;PMS5003;69710;64.656;21.218;2023-08-24T05:25:03;25;24;
49454;PMS5003;69710;64.656;21.218;2023-08-24T05:27:31;24;23;
49454;PMS5003;69710;64.656;21.218;2023-08-24T05:29:59;23;21;
49454;PMS5003;69710;64.656;21.218;2023-08-24T05:32:32;27;25;
49454;PMS5003;69710;64.656;21.218;2023-08-24T05:34:59;23;23;
49454;PMS5003;69710;64.656;21.218;2023-08-24T05:37:28;21;21;
49454;PMS5003;69710;64.656;21.218;2023-08-24T05:39:56;18;18;
49454;PMS5003;69710;64.656;21.218;2023-08-24T05:42:24;25;23;
49454;PMS5003;69710;64.656;21.218;2023-08-24T05:44:52;19;19;
49454;PMS5003;69710;64.656;21.218;2023-08-24T05:47:20;22;19;
49454;PMS5003;69710;64.656;21.218;2023-08-24T05:49:48;20;20;
49454;PMS5003;69710;64.656;21.218;2023-08-24T05:52:16;22;22;
49454;PMS5003;69710;64.656;21.218;2023-08-24T05:54:43;19;18;
49454;PMS5003;69710;64.656;21.218;2023-08-24T05:57:11;18;18;
49454;PMS5003;69710;64.656;21.218;2023-08-24T05:59:38;21;21;
49454;PMS5003;69710;64.656;21.218;2023-08-24T06:02:06;20;20;
49454;PMS5003;69710;64.656;21.218;2023-08-24T06:04:33;21;21;
49454;PMS5003;69710;64.656;21.218;2023-08-24T06:07:01;17;17;
49454;PMS5003;69710;64.656;21.218;2023-08-24T06:09:29;23;22;
49454;PMS5003;69710;64.656;21.218;2023-08-24T06:11:57;22;21;
49454;PMS5003;69710;64.656;21.218;2023-08-24T06:14:25;16;16;
49454;PMS5003;69710;64.656;21.218;2023-08-24T06:16:53;20;19;
49454;PMS5003;69710;64.656;21.218;2023-08-24T06:19:20;20;20;
49454;PMS5003;69710;64.656;21.218;2023-08-24T06:21:48;18;18;
49454;PMS5003;69710;64.656;21.218;2023-08-24T06:24:16;19;19;
49454;PMS5003;69710;64.656;21.218;2023-08-24T06:26:43;19;18;
49454;PMS5003;69710;64.656;21.218;2023-08-24T06:29:13;23;23;
49454;PMS5003;69710;64.656;21.218;2023-08-24T06:31:42;19;18;
49454;PMS5003;69710;64.656;21.218;2023-08-24T06:34:10;20;18;
49454;PMS5003;69710;64.656;21.218;2023-08-24T06:36:38;21;20;
49454;PMS5003;69710;64.656;21.218;2023-08-24T06:39:06;16;16;
49454;PMS5003;69710;64.656;21.218;2023-08-24T06:41:34;19;18;
49454;PMS5003;69710;64.656;21.218;2023-08-24T06:44:05;19;18;
49454;PMS5003;69710;64.656;21.218;2023-08-24T06:46:33;21;21;
49454;PMS5003;69710;64.656;21.218;2023-08-24T06:49:02;17;17;
49454;PMS5003;69710;64.656;21.218;2023-08-24T06:51:30;20;20;
49454;PMS5003;69710;64.656;21.218;2023-08-24T06:53:58;19;17;
49454;PMS5003;69710;64.656;21.218;2023-08-24T06:56:26;20;20;
49454;PMS5003;69710;64.656;21.218;2023-08-24T06:58:54;23;22;
49454;PMS5003;69710;64.656;21.218;2023-08-24T07:01:21;15;15;
49454;PMS5003;69710;64.656;21.218;2023-08-24T07:03:49;13;13;
49454;PMS5003;69710;64.656;21.218;2023-08-24T07:06:17;17;16;
49454;PMS5003;69710;64.656;21.218;2023-08-24T07:08:45;16;15;
49454;PMS5003;69710;64.656;21.218;2023-08-24T07:11:13;15;15;
49454;PMS5003;69710;64.656;21.218;2023-08-24T07:13:41;13;13;
49454;PMS5003;69710;64.656;21.218;2023-08-24T07:16:09;18;16;
49454;PMS5003;69710;64.656;21.218;2023-08-24T07:18:37;16;16;
49454;PMS5003;69710;64.656;21.218;2023-08-24T07:21:05;19;19;
49454;PMS5003;69710;64.656;21.218;2023-08-24T07:23:34;21;21;
49454;PMS5003;69710;64.656;21.218;2023-08-24T07:26:01;23;23;
49454;PMS5003;69710;64.656;21.218;2023-08-24T07:28:29;19;19;
49454;PMS5003;69710;64.656;21.218;2023-08-24T07:30:58;16;15;
49454;PMS5003;69710;64.656;21.218;2023-08-24T07:33:33;16;16;
49454;PMS5003;69710;64.656;21.218;2023-08-24T07:36:01;19;19;
49454;PMS5003;69710;64.656;21.218;2023-08-24T07:38:29;15;15;
49454;PMS5003;69710;64.656;21.218;2023-08-24T07:40:57;17;17;
49454;PMS5003;69710;64.656;21.218;2023-08-24T07:43:26;19;19;
49454;PMS5003;69710;64.656;21.218;2023-08-24T07:45:54;17;17;
49454;PMS5003;69710;64.656;21.218;2023-08-24T07:48:22;15;15;
49454;PMS5003;69710;64.656;21.218;2023-08-24T07:50:50;15;15;
49454;PMS5003;69710;64.656;21.218;2023-08-24T07:53:18;17;16;
49454;PMS5003;69710;64.656;21.218;2023-08-24T07:55:45;17;17;
49454;PMS5003;69710;64.656;21.218;2023-08-24T07:58:14;19;19;
49454;PMS5003;69710;64.656;21.218;2023-08-24T08:00:41;21;19;
49454;PMS5003;69710;64.656;21.218;2023-08-24T08:03:09;19;19;
49454;PMS5003;69710;64.656;21.218;2023-08-24T08:05:36;15;14;
49454;PMS5003;69710;64.656;21.218;2023-08-24T08:08:04;17;16;
49454;PMS5003;69710;64.656;21.218;2023-08-24T08:10:32;14;14;
49454;PMS5003;69710;64.656;21.218;2023-08-24T08:12:59;14;13;
49454;PMS5003;69710;64.656;21.218;2023-08-24T08:15:27;15;15;
49454;PMS5003;69710;64.656;21.218;2023-08-24T08:17:55;18;16;
49454;PMS5003;69710;64.656;21.218;2023-08-24T08:20:22;18;18;
49454;PMS5003;69710;64.656;21.218;2023-08-24T08:22:50;18;17;
49454;PMS5003;69710;64.656;21.218;2023-08-24T08:25:18;19;19;
49454;PMS5003;69710;64.656;21.218;2023-08-24T08:27:46;18;17;
49454;PMS5003;69710;64.656;21.218;2023-08-24T08:30:14;17;17;
49454;PMS5003;69710;64.656;21.218;2023-08-24T08:32:42;16;16;
49454;PMS5003;69710;64.656;21.218;2023-08-24T08:35:10;12;12;
49454;PMS5003;69710;64.656;21.218;2023-08-24T08:37:38;11;11;
49454;PMS5003;69710;64.656;21.218;2023-08-24T08:40:08;12;11;
49454;PMS5003;69710;64.656;21.218;2023-08-24T08:42:37;11;11;
49454;PMS5003;69710;64.656;21.218;2023-08-24T08:45:08;10;10;
49454;PMS5003;69710;64.656;21.218;2023-08-24T08:47:37;12;11;
49454;PMS5003;69710;64.656;21.218;2023-08-24T08:50:05;11;10;
49454;PMS5003;69710;64.656;21.218;2023-08-24T08:52:33;11;9;
49454;PMS5003;69710;64.656;21.218;2023-08-24T08:55:01;9;8;
49454;PMS5003;69710;64.656;21.218;2023-08-24T08:57:29;10;9;
49454;PMS5003;69710;64.656;21.218;2023-08-24T08:59:57;10;10;
49454;PMS5003;69710;64.656;21.218;2023-08-24T09:02:25;8;8;
49454;PMS5003;69710;64.656;21.218;2023-08-24T09:04:55;8;8;
49454;PMS5003;69710;64.656;21.218;2023-08-24T09:07:23;7;6;
49454;PMS5003;69710;64.656;21.218;2023-08-24T09:09:51;7;6;
49454;PMS5003;69710;64.656;21.218;2023-08-24T09:12:19;8;8;
49454;PMS5003;69710;64.656;21.218;2023-08-24T09:14:47;8;8;
49454;PMS5003;69710;64.656;21.218;2023-08-24T09:17:22;10;9;
49454;PMS5003;69710;64.656;21.218;2023-08-24T09:19:50;9;9;
49454;PMS5003;69710;64.656;21.218;2023-08-24T09:22:24;7;7;
49454;PMS5003;69710;64.656;21.218;2023-08-24T09:24:52;7;7;
49454;PMS5003;69710;64.656;21.218;2023-08-24T09:27:21;8;7;
49454;PMS5003;69710;64.656;21.218;2023-08-24T09:29:49;5;5;
49454;PMS5003;69710;64.656;21.218;2023-08-24T09:32:21;7;7;
49454;PMS5003;69710;64.656;21.218;2023-08-24T09:34:50;8;8;
49454;PMS5003;69710;64.656;21.218;2023-08-24T09:37:18;12;12;
49454;PMS5003;69710;64.656;21.218;2023-08-24T09:39:46;8;7;
49454;PMS5003;69710;64.656;21.218;2023-08-24T09:42:14;9;9;
49454;PMS5003;69710;64.656;21.218;2023-08-24T09:44:43;7;7;
49454;PMS5003;69710;64.656;21.218;2023-08-24T09:47:11;7;7;
49454;PMS5003;69710;64.656;21.218;2023-08-24T09:49:39;7;7;
49454;PMS5003;69710;64.656;21.218;2023-08-24T09:52:07;10;9;
49454;PMS5003;69710;64.656;21.218;2023-08-24T09:54:36;7;6;
49454;PMS5003;69710;64.656;21.218;2023-08-24T09:57:05;9;9;
49454;PMS5003;69710;64.656;21.218;2023-08-24T09:59:33;19;18;
49454;PMS5003;69710;64.656;21.218;2023-08-24T10:02:07;8;8;
49454;PMS5003;69710;64.656;21.218;2023-08-24T10:04:41;6;6;
49454;PMS5003;69710;64.656;21.218;2023-08-24T10:07:11;10;9;
49454;PMS5003;69710;64.656;21.218;2023-08-24T10:09:44;9;9;
49454;PMS5003;69710;64.656;21.218;2023-08-24T10:12:20;8;8;
49454;PMS5003;69710;64.656;21.218;2023-08-24T10:14:56;9;9;
49454;PMS5003;69710;64.656;21.218;2023-08-24T10:17:27;9;9;
49454;PMS5003;69710;64.656;21.218;2023-08-24T10:20:01;10;10;
49454;PMS5003;69710;64.656;21.218;2023-08-24T10:22:31;7;7;
49454;PMS5003;69710;64.656;21.218;2023-08-24T10:25:02;7;7;
49454;PMS5003;69710;64.656;21.218;2023-08-24T10:27:31;8;8;
49454;PMS5003;69710;64.656;21.218;2023-08-24T10:29:59;6;6;
49454;PMS5003;69710;64.656;21.218;2023-08-24T10:32:27;7;7;
49454;PMS5003;69710;64.656;21.218;2023-08-24T10:34:57;9;9;
49454;PMS5003;69710;64.656;21.218;2023-08-24T10:37:25;10;10;
49454;PMS5003;69710;64.656;21.218;2023-08-24T10:39:54;8;6;
49454;PMS5003;69710;64.656;21.218;2023-08-24T10:42:22;9;9;
49454;PMS5003;69710;64.656;21.218;2023-08-24T10:44:50;9;8;
49454;PMS5003;69710;64.656;21.218;2023-08-24T10:47:18;8;8;
49454;PMS5003;69710;64.656;21.218;2023-08-24T10:49:57;9;8;
49454;PMS5003;69710;64.656;21.218;2023-08-24T10:52:26;7;7;
49454;PMS5003;69710;64.656;21.218;2023-08-24T10:55:00;10;10;
49454;PMS5003;69710;64.656;21.218;2023-08-24T10:57:34;9;9;
49454;PMS5003;69710;64.656;21.218;2023-08-24T11:00:04;9;9;
49454;PMS5003;69710;64.656;21.218;2023-08-24T11:02:41;8;8;
49454;PMS5003;69710;64.656;21.218;2023-08-24T11:05:15;9;8;
49454;PMS5003;69710;64.656;21.218;2023-08-24T11:07:52;10;9;
49454;PMS5003;69710;64.656;21.218;2023-08-24T11:10:21;6;6;
49454;PMS5003;69710;64.656;21.218;2023-08-24T11:13:06;6;6;
49454;PMS5003;69710;64.656;21.218;2023-08-24T11:15:37;8;8;
49454;PMS5003;69710;64.656;21.218;2023-08-24T11:18:22;6;6;
49454;PMS5003;69710;64.656;21.218;2023-08-24T11:20:51;9;7;
49454;PMS5003;69710;64.656;21.218;2023-08-24T11:23:21;7;6;
49454;PMS5003;69710;64.656;21.218;2023-08-24T11:25:50;7;6;
49454;PMS5003;69710;64.656;21.218;2023-08-24T11:28:19;7;7;
49454;PMS5003;69710;64.656;21.218;2023-08-24T11:30:47;8;8;
49454;PMS5003;69710;64.656;21.218;2023-08-24T11:33:15;8;8;
49454;PMS5003;69710;64.656;21.218;2023-08-24T11:35:44;9;9;
49454;PMS5003;69710;64.656;21.218;2023-08-24T11:38:12;8;8;
49454;PMS5003;69710;64.656;21.218;2023-08-24T11:40:40;7;7;
49454;PMS5003;69710;64.656;21.218;2023-08-24T11:43:08;8;7;
49454;PMS5003;69710;64.656;21.218;2023-08-24T11:45:36;8;8;
49454;PMS5003;69710;64.656;21.218;2023-08-24T11:48:05;5;5;
49454;PMS5003;69710;64.656;21.218;2023-08-24T11:50:33;6;6;
49454;PMS5003;69710;64.656;21.218;2023-08-24T11:53:01;8;8;
49454;PMS5003;69710;64.656;21.218;2023-08-24T11:55:29;8;7;
49454;PMS5003;69710;64.656;21.218;2023-08-24T11:57:57;6;6;
49454;PMS5003;69710;64.656;21.218;2023-08-24T12:00:26;7;7;
49454;PMS5003;69710;64.656;21.218;2023-08-24T12:02:55;8;8;
49454;PMS5003;69710;64.656;21.218;2023-08-24T12:05:25;8;7;
49454;PMS5003;69710;64.656;21.218;2023-08-24T12:07:54;6;6;
49454;PMS5003;69710;64.656;21.218;2023-08-24T12:10:22;6;6;
49454;PMS5003;69710;64.656;21.218;2023-08-24T12:13:00;8;7;
49454;PMS5003;69710;64.656;21.218;2023-08-24T12:15:29;7;7;
49454;PMS5003;69710;64.656;21.218;2023-08-24T12:17:57;6;6;
49454;PMS5003;69710;64.656;21.218;2023-08-24T12:20:35;6;6;
49454;PMS5003;69710;64.656;21.218;2023-08-24T12:23:03;7;7;
49454;PMS5003;69710;64.656;21.218;2023-08-24T12:25:38;6;6;
49454;PMS5003;69710;64.656;21.218;2023-08-24T12:28:10;7;7;
49454;PMS5003;69710;64.656;21.218;2023-08-24T12:30:46;6;6;
49454;PMS5003;69710;64.656;21.218;2023-08-24T12:33:25;8;7;
49454;PMS5003;69710;64.656;21.218;2023-08-24T12:35:54;7;7;
49454;PMS5003;69710;64.656;21.218;2023-08-24T12:38:23;7;7;
49454;PMS5003;69710;64.656;21.218;2023-08-24T12:40:51;7;7;
49454;PMS5003;69710;64.656;21.218;2023-08-24T12:43:19;6;6;
49454;PMS5003;69710;64.656;21.218;2023-08-24T12:45:47;6;5;
49454;PMS5003;69710;64.656;21.218;2023-08-24T12:48:15;5;5;
49454;PMS5003;69710;64.656;21.218;2023-08-24T12:50:43;8;8;
49454;PMS5003;69710;64.656;21.218;2023-08-24T12:53:10;6;6;
49454;PMS5003;69710;64.656;21.218;2023-08-24T12:55:39;5;5;
49454;PMS5003;69710;64.656;21.218;2023-08-24T12:58:06;7;7;
49454;PMS5003;69710;64.656;21.218;2023-08-24T13:00:34;4;4;
49454;PMS5003;69710;64.656;21.218;2023-08-24T13:03:03;6;6;
49454;PMS5003;69710;64.656;21.218;2023-08-24T13:05:31;5;4;
49454;PMS5003;69710;64.656;21.218;2023-08-24T13:07:59;7;7;
49454;PMS5003;69710;64.656;21.218;2023-08-24T13:10:27;8;7;
49454;PMS5003;69710;64.656;21.218;2023-08-24T13:13:01;6;6;
49454;PMS5003;69710;64.656;21.218;2023-08-24T13:15:29;7;7;
49454;PMS5003;69710;64.656;21.218;2023-08-24T13:17:57;7;7;
49454;PMS5003;69710;64.656;21.218;2023-08-24T13:20:26;6;6;
49454;PMS5003;69710;64.656;21.218;2023-08-24T13:22:53;7;7;
49454;PMS5003;69710;64.656;21.218;2023-08-24T13:25:21;7;6;
49454;PMS5003;69710;64.656;21.218;2023-08-24T13:27:49;7;6;
49454;PMS5003;69710;64.656;21.218;2023-08-24T13:30:17;6;6;
49454;PMS5003;69710;64.656;21.218;2023-08-24T13:32:44;8;8;
49454;PMS5003;69710;64.656;21.218;2023-08-24T13:35:12;7;7;
49454;PMS5003;69710;64.656;21.218;2023-08-24T13:37:40;8;8;
49454;PMS5003;69710;64.656;21.218;2023-08-24T13:40:09;6;5;
49454;PMS5003;69710;64.656;21.218;2023-08-24T13:42:36;6;6;
49454;PMS5003;69710;64.656;21.218;2023-08-24T13:45:05;7;7;
49454;PMS5003;69710;64.656;21.218;2023-08-24T13:47:34;10;10;
49454;PMS5003;69710;64.656;21.218;2023-08-24T13:50:02;7;6;
49454;PMS5003;69710;64.656;21.218;2023-08-24T13:52:29;9;9;
49454;PMS5003;69710;64.656;21.218;2023-08-24T13:54:58;9;9;
49454;PMS5003;69710;64.656;21.218;2023-08-24T13:57:25;8;7;
49454;PMS5003;69710;64.656;21.218;2023-08-24T13:59:53;8;8;
49454;PMS5003;69710;64.656;21.218;2023-08-24T14:02:21;8;8;
49454;PMS5003;69710;64.656;21.218;2023-08-24T14:04:48;8;8;
49454;PMS5003;69710;64.656;21.218;2023-08-24T14:07:15;7;7;
49454;PMS5003;69710;64.656;21.218;2023-08-24T14:09:43;8;8;
49454;PMS5003;69710;64.656;21.218;2023-08-24T14:12:11;10;10;
49454;PMS5003;69710;64.656;21.218;2023-08-24T14:14:39;9;9;
49454;PMS5003;69710;64.656;21.218;2023-08-24T14:17:07;10;9;
49454;PMS5003;69710;64.656;21.218;2023-08-24T14:19:35;7;6;
49454;PMS5003;69710;64.656;21.218;2023-08-24T14:22:03;6;6;
49454;PMS5003;69710;64.656;21.218;2023-08-24T14:24:31;9;8;
49454;PMS5003;69710;64.656;21.218;2023-08-24T14:26:58;9;9;
49454;PMS5003;69710;64.656;21.218;2023-08-24T14:29:27;6;6;
49454;PMS5003;69710;64.656;21.218;2023-08-24T14:31:55;9;9;
49454;PMS5003;69710;64.656;21.218;2023-08-24T14:34:22;7;7;
49454;PMS5003;69710;64.656;21.218;2023-08-24T14:36:50;8;8;
49454;PMS5003;69710;64.656;21.218;2023-08-24T14:39:19;9;8;
49454;PMS5003;69710;64.656;21.218;2023-08-24T14:41:47;9;9;
49454;PMS5003;69710;64.656;21.218;2023-08-24T14:44:14;9;9;
49454;PMS5003;69710;64.656;21.218;2023-08-24T14:46:42;11;10;
49454;PMS5003;69710;64.656;21.218;2023-08-24T14:49:12;10;10;
49454;PMS5003;69710;64.656;21.218;2023-08-24T14:51:39;9;8;
49454;PMS5003;69710;64.656;21.218;2023-08-24T14:54:07;13;13;
49454;PMS5003;69710;64.656;21.218;2023-08-24T14:56:35;8;7;
49454;PMS5003;69710;64.656;21.218;2023-08-24T14:59:03;12;11;
49454;PMS5003;69710;64.656;21.218;2023-08-24T15:01:30;9;9;
49454;PMS5003;69710;64.656;21.218;2023-08-24T15:03:59;11;11;
49454;PMS5003;69710;64.656;21.218;2023-08-24T15:06:26;8;8;
49454;PMS5003;69710;64.656;21.218;2023-08-24T15:08:55;9;8;
49454;PMS5003;69710;64.656;21.218;2023-08-24T15:11:23;10;10;
49454;PMS5003;69710;64.656;21.218;2023-08-24T15:13:52;11;11;
49454;PMS5003;69710;64.656;21.218;2023-08-24T15:16:20;10;10;
49454;PMS5003;69710;64.656;21.218;2023-08-24T15:18:47;9;8;
49454;PMS5003;69710;64.656;21.218;2023-08-24T15:21:14;10;10;
49454;PMS5003;69710;64.656;21.218;2023-08-24T15:23:41;9;9;
49454;PMS5003;69710;64.656;21.218;2023-08-24T15:26:10;11;11;
49454;PMS5003;69710;64.656;21.218;2023-08-24T15:29:06;10;9;
49454;PMS5003;69710;64.656;21.218;2023-08-24T15:31:35;7;7;
49454;PMS5003;69710;64.656;21.218;2023-08-24T15:34:04;10;10;
49454;PMS5003;69710;64.656;21.218;2023-08-24T15:36:31;10;10;
49454;PMS5003;69710;64.656;21.218;2023-08-24T15:38:59;10;10;
49454;PMS5003;69710;64.656;21.218;2023-08-24T15:41:27;10;10;
49454;PMS5003;69710;64.656;21.218;2023-08-24T15:43:56;12;11;
49454;PMS5003;69710;64.656;21.218;2023-08-24T15:46:24;10;10;
49454;PMS5003;69710;64.656;21.218;2023-08-24T15:48:52;8;8;
49454;PMS5003;69710;64.656;21.218;2023-08-24T15:51:20;8;8;
49454;PMS5003;69710;64.656;21.218;2023-08-24T15:53:48;10;10;
49454;PMS5003;69710;64.656;21.218;2023-08-24T15:56:15;8;8;
49454;PMS5003;69710;64.656;21.218;2023-08-24T15:58:43;7;7;
49454;PMS5003;69710;64.656;21.218;2023-08-24T16:01:12;8;8;
49454;PMS5003;69710;64.656;21.218;2023-08-24T16:03:40;8;8;
49454;PMS5003;69710;64.656;21.218;2023-08-24T16:06:08;10;10;
49454;PMS5003;69710;64.656;21.218;2023-08-24T16:08:36;9;9;
49454;PMS5003;69710;64.656;21.218;2023-08-24T16:11:04;9;9;
49454;PMS5003;69710;64.656;21.218;2023-08-24T16:13:32;9;9;
49454;PMS5003;69710;64.656;21.218;2023-08-24T16:16:00;9;9;
49454;PMS5003;69710;64.656;21.218;2023-08-24T16:18:28;8;8;
49454;PMS5003;69710;64.656;21.218;2023-08-24T16:20:56;10;10;
49454;PMS5003;69710;64.656;21.218;2023-08-24T16:23:25;11;10;